Portada
METAR-TAF:

METAR-TAF

Aeroports :

Kunming, Xina

latitud: 25-01N, longitud: 102-41E, altitud: 1892 m

Observació

L'informe es va fer fa 1 hora i 12 minuts, a les 15:00 UTC
Vent 10 kt del Sud-Oest
Temperatura 8°C
Humitat 93%
Pressió 1023 hPa
Visibilitat: 7000 m
Escasses núvols a una alçada de 1000 ft
Núvols disperses a una alçada de 2300 ft
Cel cobert a una alçada de 3300 ft

METAR: ZPPP 181500Z 22005MPS 7000 FEW010 SCT023 OVC033 08/07 Q1023 NOSIG

Hora: 00:12 (16:12 UTC)

Pronòstic

L'informe es va fer fa 9 hores i 5 minuts, a les 07:07 UTC
Pronòstic vàlid del 18 a les 12 UTC al 19 a les 12 UTC
Vent 10 kt del Sud-Oest
Visibilitat: 6000 m
Núvols disperses a una alçada de 1000 ft
Cel cobert a una alçada de 3300 ft
Evolucionant progressivament
l' 19 a les 04 UTC al 19 a les 05 UTC
Vent 19 kt del Sud-Oest amb ràfegues de 29 kt

TAF: ZPPP 180707Z 1812/1912 23005MPS 6000 SCT010 OVC033 TX12/1908Z TN04/1823Z BECMG 1904/1905 23010G15MPS

Observacions i pronòstics meteorològics de més de 4000 aeroports (METAR i TAF).

Les estacions disponibles són els punts grocs i vermells al mapa.

Posi el ratolí al punt desitjat per veure el nom de l'estació.

Feu clic per veure les observacions i els pronòstics meteorològics.

Per canviar el mapa: feu clic els botons verds amb una creu de color negre per apropar; al botó verd amb un guió per allunyar la imatge; o en les fletxes verdes per a mapes adjacents.


METAR-TAF: